Time;durP1;ratioP1;P1;durP2;ratioP2;P2;SDS_P1;SDS_P2;PMS_P1;PMS_P2;Temp;Humidity;BMP_temperature;BMP_pressure;BME280_temperature;BME280_humidity;BME280_pressure;Samples;Min_cycle;Max_cycle;Signal;HPM_P1;HPM_P2
2021/12/23 00:01:14;;;;;;;44.35;22.60;;;;;;;-0.49;100.00;102411.84;4956811;29;20035;-71
2021/12/23 00:04:00;;;;;;;40.33;22.13;;;;;;;-0.80;100.00;102411.00;4956523;29;20023;-71
2021/12/23 00:06:46;;;;;;;45.88;22.67;;;;;;;-0.59;100.00;102412.16;4956651;28;20110;-69
2021/12/23 00:10:17;;;;;;;51.50;27.08;;;;;;;-0.39;100.00;102421.84;4956446;29;20035;-70
2021/12/23 00:12:41;;;;;;;53.40;27.35;;;;;;;-0.39;100.00;102417.56;4957249;29;20130;-70
2021/12/23 00:24:27;;;;;;;60.42;30.77;;;;;;;-0.27;100.00;102418.22;4956716;29;20459;-68
2021/12/23 00:27:14;;;;;;;58.30;29.50;;;;;;;-0.98;100.00;102421.16;4955574;28;20027;-71
2021/12/23 00:30:00;;;;;;;50.08;27.13;;;;;;;-0.50;100.00;102418.69;4943116;29;20151;-70
2021/12/23 00:32:45;;;;;;;51.15;27.67;;;;;;;-0.31;100.00;102413.69;4955662;29;20182;-70
2021/12/23 00:35:31;;;;;;;51.95;27.23;;;;;;;-0.60;100.00;102412.97;4956877;28;20023;-70
2021/12/23 00:38:23;;;;;;;52.88;27.20;;;;;;;-0.43;100.00;102414.75;4956901;29;20372;-70
2021/12/23 00:41:09;;;;;;;52.55;28.13;;;;;;;-0.48;100.00;102413.63;4955355;29;20034;-69
2021/12/23 00:43:55;;;;;;;50.13;26.33;;;;;;;-0.47;100.00;102411.13;4956122;29;20365;-69
2021/12/23 00:46:41;;;;;;;45.90;24.80;;;;;;;-0.82;100.00;102404.88;4955362;28;20023;-70
2021/12/23 00:49:26;;;;;;;48.25;25.10;;;;;;;-0.73;100.00;102403.69;4956440;29;20035;-69
2021/12/23 00:52:14;;;;;;;43.97;22.45;;;;;;;-0.31;100.00;102412.84;4941345;29;20066;-69
2021/12/23 00:55:01;;;;;;;42.85;22.30;;;;;;;-0.64;100.00;102408.47;4955222;29;20495;-69
2021/12/23 00:57:46;;;;;;;43.65;22.83;;;;;;;-0.49;100.00;102409.28;4957160;28;20028;-69
2021/12/23 01:00:33;;;;;;;47.95;23.55;;;;;;;-0.59;100.00;102407.03;4957085;28;20023;-69
2021/12/23 01:03:18;;;;;;;41.83;22.50;;;;;;;-0.54;100.00;102400.41;4957109;28;20524;-70
2021/12/23 01:06:04;;;;;;;39.65;21.73;;;;;;;-0.51;100.00;102400.59;4955501;28;20134;-69
2021/12/23 01:08:50;;;;;;;43.05;21.67;;;;;;;-0.19;100.00;102395.47;4955730;29;20038;-70
2021/12/23 01:11:36;;;;;;;39.97;21.92;;;;;;;-0.28;100.00;102405.28;4942487;28;20105;-70
2021/12/23 01:17:53;;;;;;;56.55;29.40;;;;;;;-0.12;100.00;102382.09;4954696;28;20032;-70
2021/12/23 01:20:28;;;;;;;84.93;38.13;;;;;;;-0.66;100.00;102382.66;4955595;29;20034;-69
2021/12/23 01:23:14;;;;;;;182.10;82.60;;;;;;;-0.47;100.00;102387.94;4956539;28;20046;-71
2021/12/23 01:26:00;;;;;;;43.28;24.15;;;;;;;-0.28;100.00;102385.53;4955482;28;20051;-70
2021/12/23 01:28:53;;;;;;;49.42;26.15;;;;;;;-0.79;100.00;102379.31;4954834;28;20026;-71
2021/12/23 01:31:39;;;;;;;48.90;27.10;;;;;;;-0.43;100.00;102371.00;4959287;29;20039;-70
2021/12/23 01:34:24;;;;;;;45.20;24.30;;;;;;;-0.59;100.00;102374.44;4958819;29;20050;-70
2021/12/23 01:37:10;;;;;;;41.13;22.83;;;;;;;-0.20;100.00;102378.25;4959333;28;20031;-69
2021/12/23 01:39:56;;;;;;;56.58;28.50;;;;;;;-0.71;100.00;102378.94;4946265;28;20042;-69
2021/12/23 01:42:42;;;;;;;55.63;27.55;;;;;;;-0.75;100.00;102378.69;4946374;29;20031;-70
2021/12/23 01:45:30;;;;;;;43.30;24.02;;;;;;;-0.23;100.00;102388.38;4959905;28;20015;-70
2021/12/23 01:48:18;;;;;;;44.40;24.02;;;;;;;0.08;100.00;102385.69;4945769;29;20090;-68
2021/12/23 01:51:03;;;;;;;50.85;25.52;;;;;;;0.05;100.00;102387.28;4957990;29;20038;-70
2021/12/23 01:53:49;;;;;;;49.42;26.15;;;;;;;-0.09;100.00;102387.38;4959995;28;20035;-70
2021/12/23 01:56:35;;;;;;;48.83;26.60;;;;;;;-0.34;100.00;102389.50;4944156;29;20023;-70
2021/12/23 01:59:21;;;;;;;51.97;25.63;;;;;;;0.07;100.00;102391.66;4958698;29;20042;-70
2021/12/23 02:02:07;;;;;;;56.80;31.00;;;;;;;-0.02;100.00;102389.47;4958861;29;20031;-71
2021/12/23 02:04:53;;;;;;;63.25;33.92;;;;;;;-0.47;100.00;102387.09;4958808;29;20106;-69
2021/12/23 02:07:39;;;;;;;77.43;42.67;;;;;;;-0.35;100.00;102391.16;4944217;29;20034;-69
2021/12/23 02:10:27;;;;;;;78.55;42.13;;;;;;;0.06;100.00;102380.44;4959243;29;20035;-71
2021/12/23 02:13:12;;;;;;;78.57;43.08;;;;;;;-0.26;100.00;102386.53;4958124;29;20035;-70
2021/12/23 02:15:58;;;;;;;58.03;29.40;;;;;;;-0.58;100.00;102383.94;4957572;28;20051;-70
2021/12/23 02:18:44;;;;;;;40.80;22.92;;;;;;;-0.35;100.00;102385.16;4959227;29;20030;-68
2021/12/23 02:21:30;;;;;;;39.08;22.85;;;;;;;-0.64;100.00;102386.16;4958310;29;20031;-70
2021/12/23 02:24:17;;;;;;;39.15;21.60;;;;;;;-0.64;100.00;102386.16;4958342;29;20059;-71
2021/12/23 02:27:03;;;;;;;36.90;20.48;;;;;;;-0.40;100.00;102397.78;4959359;28;20368;-69
2021/12/23 02:29:49;;;;;;;41.00;21.88;;;;;;;-0.18;100.00;102398.13;4958762;29;20027;-69
2021/12/23 02:32:35;;;;;;;39.05;22.17;;;;;;;-0.49;100.00;102391.25;4958786;29;20046;-71
2021/12/23 02:35:23;;;;;;;40.55;22.35;;;;;;;0.01;100.00;102394.78;4957408;28;20054;-69
2021/12/23 02:38:09;;;;;;;44.22;25.02;;;;;;;-0.10;100.00;102396.81;4958834;29;20132;-69
2021/12/23 02:40:56;;;;;;;53.00;27.02;;;;;;;0.30;100.00;102394.56;4956513;28;20512;-70
2021/12/23 02:43:41;;;;;;;55.80;31.45;;;;;;;0.09;100.00;102389.22;4958343;29;20031;-69
2021/12/23 02:46:27;;;;;;;60.15;32.97;;;;;;;-0.20;100.00;102394.56;4957924;28;20023;-70
2021/12/23 02:49:13;;;;;;;70.72;36.60;;;;;;;0.02;100.00;102386.25;4957677;29;20039;-69
2021/12/23 02:51:59;;;;;;;67.18;35.67;;;;;;;0.03;100.00;102383.75;4945130;28;20051;-70
2021/12/23 02:54:57;;;;;;;64.63;36.60;;;;;;;0.28;100.00;102378.13;4944328;29;20365;-69
2021/12/23 02:57:43;;;;;;;69.03;36.35;;;;;;;-0.32;100.00;102382.75;4957308;29;20453;-69
2021/12/23 03:00:30;;;;;;;74.30;38.72;;;;;;;-0.59;100.00;102386.44;4957231;29;20042;-69
2021/12/23 03:03:15;;;;;;;69.97;37.03;;;;;;;0.21;100.00;102383.81;4957901;29;20034;-70
2021/12/23 03:06:01;;;;;;;77.38;40.83;;;;;;;0.25;100.00;102385.72;4958354;28;20027;-69
2021/12/23 03:08:50;;;;;;;67.55;38.35;;;;;;;-0.11;100.00;102384.72;4957449;29;20042;-71
2021/12/23 03:11:36;;;;;;;63.00;35.88;;;;;;;0.13;100.00;102388.56;4957896;29;20020;-69
2021/12/23 03:14:22;;;;;;;61.42;35.47;;;;;;;0.31;100.00;102386.03;4958899;28;20027;-70
2021/12/23 03:17:08;;;;;;;65.15;34.65;;;;;;;0.13;100.00;102385.13;4957858;28;20094;-71
2021/12/23 03:19:53;;;;;;;58.60;33.00;;;;;;;-0.54;100.00;102388.44;4945023;28;20119;-70
2021/12/23 03:22:39;;;;;;;58.30;33.22;;;;;;;-0.90;100.00;102388.13;4956827;29;20034;-69
2021/12/23 03:25:25;;;;;;;54.00;30.65;;;;;;;-0.63;100.00;102390.50;4944375;28;20034;-70
2021/12/23 03:28:11;;;;;;;52.35;29.40;;;;;;;-0.22;100.00;102380.72;4957721;29;20520;-69
2021/12/23 03:30:58;;;;;;;60.33;33.13;;;;;;;-0.22;100.00;102385.88;4957692;29;20042;-71
2021/12/23 03:33:44;;;;;;;57.15;32.58;;;;;;;-0.06;100.00;102393.59;4943354;29;20066;-71
2021/12/23 03:36:30;;;;;;;52.58;31.42;;;;;;;0.13;100.00;102398.00;4957216;28;20536;-69
2021/12/23 03:39:16;;;;;;;52.45;29.27;;;;;;;-0.41;100.00;102387.41;4942867;29;20106;-69
2021/12/23 03:42:03;;;;;;;50.28;28.85;;;;;;;-0.77;100.00;102388.91;4944034;28;20453;-70
2021/12/23 03:44:49;;;;;;;52.15;28.23;;;;;;;-0.61;100.00;102382.88;4957605;29;20049;-70
2021/12/23 03:47:35;;;;;;;53.08;29.83;;;;;;;-0.40;100.00;102379.75;4956687;29;20500;-70
2021/12/23 03:50:24;;;;;;;52.85;29.98;;;;;;;-0.10;100.00;102377.91;4944067;29;20027;-70
2021/12/23 03:53:10;;;;;;;59.80;32.03;;;;;;;-0.48;100.00;102383.63;4957681;28;20393;-70
2021/12/23 03:55:56;;;;;;;54.25;30.60;;;;;;;-0.09;100.00;102377.09;4956024;28;20115;-69
2021/12/23 03:58:42;;;;;;;58.38;29.52;;;;;;;-0.18;100.00;102382.66;4957275;29;20054;-70
2021/12/23 04:01:30;;;;;;;50.53;27.48;;;;;;;0.06;100.00;102383.03;4956413;29;20487;-70
2021/12/23 04:04:16;;;;;;;44.65;25.67;;;;;;;-0.10;100.00;102376.22;4957807;28;20039;-69
2021/12/23 04:07:02;;;;;;;46.38;25.40;;;;;;;-0.42;100.00;102381.38;4955876;28;20023;-69
2021/12/23 04:09:47;;;;;;;51.15;27.38;;;;;;;-0.55;100.00;102383.22;4956633;29;20063;-69
2021/12/23 04:12:33;;;;;;;142.48;60.92;;;;;;;-1.03;100.00;102390.84;4956443;29;20050;-69
2021/12/23 04:15:19;;;;;;;71.53;33.60;;;;;;;-1.34;100.00;102395.06;4956096;28;20446;-67
2021/12/23 04:18:05;;;;;;;70.35;34.22;;;;;;;-1.55;100.00;102394.75;4955741;29;20047;-69
2021/12/23 04:20:54;;;;;;;75.22;37.30;;;;;;;-1.34;100.00;102403.66;4941984;29;20057;-68
2021/12/23 04:23:39;;;;;;;74.75;35.08;;;;;;;-1.42;100.00;102401.44;4956072;29;20074;-70
2021/12/23 04:26:25;;;;;;;63.30;31.20;;;;;;;-1.34;100.00;102395.97;4956195;28;20031;-70
2021/12/23 04:29:11;;;;;;;59.55;30.73;;;;;;;-1.05;100.00;102402.72;4955630;29;20117;-71
2021/12/23 04:31:59;;;;;;;62.03;31.67;;;;;;;-1.39;100.00;102410.25;4955930;29;20027;-69
2021/12/23 04:34:44;;;;;;;61.70;29.75;;;;;;;-1.27;100.00;102410.94;4955897;29;20357;-69
2021/12/23 04:37:30;;;;;;;62.00;32.80;;;;;;;-1.30;100.00;102409.84;4955706;29;20019;-69
2021/12/23 04:40:17;;;;;;;64.70;32.47;;;;;;;-1.27;100.00;102407.47;4955542;29;20038;-69
2021/12/23 04:43:07;;;;;;;54.25;30.00;;;;;;;-1.48;100.00;102409.69;4941893;29;20031;-70
2021/12/23 04:45:53;;;;;;;58.58;31.05;;;;;;;-1.33;100.00;102410.56;4956956;28;20090;-70
2021/12/23 04:48:39;;;;;;;56.22;31.02;;;;;;;-1.46;100.00;102414.94;4955540;29;20034;-70
2021/12/23 04:51:25;;;;;;;60.47;31.60;;;;;;;-1.69;100.00;102405.91;4955360;29;20423;-70
2021/12/23 04:54:10;;;;;;;62.92;31.60;;;;;;;-1.58;100.00;102409.09;4956303;29;20073;-69
2021/12/23 04:56:56;;;;;;;61.97;32.47;;;;;;;-1.75;100.00;102412.38;4955841;28;20041;-70
2021/12/23 04:59:42;;;;;;;59.67;31.80;;;;;;;-2.03;100.00;102411.53;4956105;29;20027;-70
2021/12/23 05:02:28;;;;;;;58.08;30.63;;;;;;;-1.93;100.00;102412.16;4956295;29;20035;-69
2021/12/23 05:05:14;;;;;;;57.85;31.17;;;;;;;-2.08;100.00;102407.81;4954314;28;20604;-70
2021/12/23 05:08:00;;;;;;;56.58;31.27;;;;;;;-2.12;100.00;102414.47;4957254;28;20035;-70
2021/12/23 05:10:46;;;;;;;58.70;31.92;;;;;;;-1.66;100.00;102415.47;4942540;29;20094;-70
2021/12/23 05:13:32;;;;;;;51.28;28.35;;;;;;;-1.73;100.00;102423.63;4954983;29;20031;-69
2021/12/23 05:16:18;;;;;;;48.53;27.10;;;;;;;-1.92;100.00;102421.63;4954478;28;20115;-70
2021/12/23 05:19:04;;;;;;;44.75;24.73;;;;;;;-2.07;100.00;102415.59;4956925;28;20031;-69
2021/12/23 05:21:50;;;;;;;46.70;25.30;;;;;;;-2.06;100.00;102412.25;4955330;29;20027;-69
2021/12/23 05:24:36;;;;;;;43.67;25.05;;;;;;;-2.23;100.00;102414.59;4942999;28;20034;-69
2021/12/23 05:27:21;;;;;;;46.03;25.10;;;;;;;-2.26;100.00;102422.09;4956147;28;20033;-70
2021/12/23 05:30:11;;;;;;;48.80;26.77;;;;;;;-2.37;100.00;102425.72;4955373;29;20372;-69
2021/12/23 05:32:57;;;;;;;50.53;27.25;;;;;;;-1.77;100.00;102422.53;4955774;29;20027;-69
2021/12/23 05:35:42;;;;;;;49.60;27.67;;;;;;;-1.72;100.00;102415.13;4956655;28;20094;-70
2021/12/23 05:38:28;;;;;;;57.88;27.30;;;;;;;-1.74;100.00;102412.47;4955525;29;20493;-69
2021/12/23 05:41:14;;;;;;;53.58;27.27;;;;;;;-1.65;100.00;102406.97;4941220;29;20031;-69
2021/12/23 05:44:00;;;;;;;53.15;28.92;;;;;;;-1.48;100.00;102403.69;4955656;29;20110;-68
2021/12/23 05:46:45;;;;;;;58.88;30.60;;;;;;;-1.50;100.00;102401.03;4942157;29;20023;-70
2021/12/23 05:49:31;;;;;;;50.03;28.67;;;;;;;-1.31;100.00;102403.84;4956523;28;20019;-70
2021/12/23 05:52:17;;;;;;;54.45;29.48;;;;;;;-1.24;100.00;102405.09;4955308;29;20055;-69
2021/12/23 05:55:05;;;;;;;61.03;29.38;;;;;;;-1.36;100.00;102406.97;4955338;29;20041;-71
2021/12/23 05:57:52;;;;;;;59.85;31.25;;;;;;;-1.51;100.00;102403.50;4956394;28;20027;-69
2021/12/23 06:00:38;;;;;;;59.75;30.73;;;;;;;-1.55;100.00;102404.13;4956700;28;20031;-71
2021/12/23 06:03:24;;;;;;;64.32;33.50;;;;;;;-1.63;100.00;102407.94;4954640;29;20039;-70
2021/12/23 06:06:10;;;;;;;62.10;32.80;;;;;;;-1.31;100.00;102414.13;4942665;28;20090;-70
2021/12/23 06:08:56;;;;;;;58.25;33.90;;;;;;;-1.34;100.00;102418.19;4955564;29;20054;-70
2021/12/23 06:11:42;;;;;;;63.95;34.90;;;;;;;-1.28;100.00;102422.00;4954834;29;20027;-70
2021/12/23 06:14:27;;;;;;;68.35;36.67;;;;;;;-1.27;100.00;102426.38;4954772;29;20031;-69
2021/12/23 06:17:13;;;;;;;67.07;36.97;;;;;;;-0.74;100.00;102430.25;4957914;28;20079;-70
2021/12/23 06:19:59;;;;;;;63.45;35.17;;;;;;;-0.94;100.00;102430.81;4959780;28;20090;-71
2021/12/23 06:22:45;;;;;;;70.30;34.83;;;;;;;-0.82;100.00;102423.78;4958432;29;20038;-69
2021/12/23 06:25:31;;;;;;;58.10;32.97;;;;;;;-0.45;100.00;102419.81;4959480;28;20037;-70
2021/12/23 06:28:17;;;;;;;67.70;35.05;;;;;;;-0.64;100.00;102426.47;4945381;28;20038;-69
2021/12/23 06:31:02;;;;;;;71.72;38.35;;;;;;;-0.68;100.00;102430.56;4958325;29;20482;-70
2021/12/23 06:33:48;;;;;;;70.75;35.95;;;;;;;-0.37;100.00;102435.66;4958974;29;20027;-71
2021/12/23 06:36:34;;;;;;;54.80;30.20;;;;;;;-0.76;100.00;102436.97;4957370;28;20440;-69
2021/12/23 06:39:20;;;;;;;53.03;28.35;;;;;;;-0.99;100.00;102439.09;4959179;28;20027;-70
2021/12/23 06:42:07;;;;;;;51.65;28.00;;;;;;;-1.29;100.00;102440.81;4957539;29;20456;-69
2021/12/23 06:44:52;;;;;;;55.95;29.90;;;;;;;-1.23;100.00;102433.47;4958263;29;20031;-70
2021/12/23 06:47:38;;;;;;;74.07;38.65;;;;;;;-1.23;100.00;102435.13;4957161;29;20154;-71
2021/12/23 06:50:24;;;;;;;72.03;37.33;;;;;;;-1.01;100.00;102444.13;4957958;29;20376;-71
2021/12/23 06:53:13;;;;;;;69.78;37.28;;;;;;;-0.91;100.00;102430.09;4958295;29;20038;-70
2021/12/23 06:56:00;;;;;;;68.55;34.30;;;;;;;-0.23;100.00;102439.88;4957867;28;20023;-70
2021/12/23 06:58:49;;;;;;;69.38;36.65;;;;;;;-0.08;100.00;102436.41;4957600;29;20035;-70
2021/12/23 07:01:35;;;;;;;71.45;34.38;;;;;;;-0.05;100.00;102441.72;4957513;29;20035;-70
2021/12/23 07:04:23;;;;;;;48.17;26.70;;;;;;;-0.12;100.00;102441.34;4957179;29;20086;-70
2021/12/23 07:07:10;;;;;;;49.78;26.13;;;;;;;0.17;100.00;102439.44;4957572;28;20094;-69
2021/12/23 07:09:56;;;;;;;51.28;26.45;;;;;;;-0.10;100.00;102439.72;4957532;29;20371;-70
2021/12/23 07:12:42;;;;;;;71.70;35.08;;;;;;;0.26;100.00;102433.88;4957621;29;20102;-71
2021/12/23 07:15:29;;;;;;;56.88;30.05;;;;;;;0.56;100.00;102430.25;4956531;28;20059;-68
2021/12/23 07:18:15;;;;;;;56.25;30.75;;;;;;;0.55;100.00;102432.78;4957467;29;20038;-70
2021/12/23 07:21:01;;;;;;;52.80;26.10;;;;;;;0.55;100.00;102432.78;4957638;29;20042;-70
2021/12/23 07:23:47;;;;;;;47.08;24.73;;;;;;;0.95;100.00;102434.78;4957419;29;20050;-68
2021/12/23 07:26:33;;;;;;;49.95;27.00;;;;;;;1.05;100.00;102439.59;4957152;28;20099;-69
2021/12/23 07:29:19;;;;;;;59.03;32.22;;;;;;;1.04;100.00;102442.09;4957647;29;20024;-70
2021/12/23 07:32:06;;;;;;;69.65;36.15;;;;;;;1.13;100.00;102432.22;4957103;29;20035;-69
2021/12/23 07:34:54;;;;;;;68.85;35.83;;;;;;;1.55;100.00;102445.44;4956662;29;20040;-71
2021/12/23 07:37:43;;;;;;;42.22;23.75;;;;;;;0.59;100.00;102437.28;4942863;29;20468;-69
2021/12/23 07:40:30;;;;;;;41.95;22.92;;;;;;;0.32;100.00;102439.34;4957466;29;20035;-71
2021/12/23 07:46:19;;;;;;;45.72;23.17;;;;;;;1.66;100.00;102449.41;4956688;28;20476;-69
2021/12/23 07:49:05;;;;;;;49.30;24.55;;;;;;;1.70;100.00;102448.72;4956934;29;20035;-69
2021/12/23 07:51:51;;;;;;;46.78;23.65;;;;;;;1.52;100.00;102449.59;4957313;29;20042;-68
2021/12/23 07:54:39;;;;;;;47.75;23.38;;;;;;;0.25;100.00;102447.59;4956887;29;20079;-69
2021/12/23 07:57:24;;;;;;;46.25;25.40;;;;;;;0.05;100.00;102449.13;4956543;28;20075;-68
2021/12/23 08:00:11;;;;;;;45.28;24.77;;;;;;;1.74;100.00;102445.47;4957543;29;20114;-69
2021/12/23 08:02:57;;;;;;;51.15;25.65;;;;;;;2.18;100.00;102445.75;4943157;29;20360;-69
2021/12/23 08:05:43;;;;;;;50.33;26.65;;;;;;;1.95;100.00;102445.53;4956928;28;20046;-69
2021/12/23 08:08:29;;;;;;;40.90;23.20;;;;;;;1.62;100.00;102444.91;4957431;29;20100;-69
2021/12/23 08:11:15;;;;;;;51.50;24.17;;;;;;;1.84;100.00;102449.34;4956384;29;20448;-67
2021/12/23 08:14:00;;;;;;;45.38;22.10;;;;;;;1.99;100.00;102437.09;4956602;29;20441;-69
2021/12/23 08:16:47;;;;;;;60.15;23.63;;;;;;;2.52;100.00;102438.59;4942692;29;20054;-69
2021/12/23 08:19:33;;;;;;;39.08;22.10;;;;;;;2.82;100.00;102434.69;4957476;28;20035;-69
2021/12/23 08:22:18;;;;;;;32.40;18.23;;;;;;;2.21;100.00;102437.22;4955773;29;20034;-70
2021/12/23 08:25:05;;;;;;;39.45;20.42;;;;;;;2.80;100.00;102444.09;4956279;29;20051;-68
2021/12/23 08:27:51;;;;;;;36.97;20.02;;;;;;;1.96;100.00;102442.13;4942577;29;20409;-68
2021/12/23 08:30:39;;;;;;;42.80;22.50;;;;;;;1.84;100.00;102439.88;4956883;29;20055;-68
2021/12/23 08:33:25;;;;;;;42.13;22.42;;;;;;;2.59;100.00;102438.03;4955716;29;20459;-68
2021/12/23 08:36:11;;;;;;;35.78;20.25;;;;;;;3.21;100.00;102436.28;4955838;28;20027;-68
2021/12/23 08:38:58;;;;;;;35.70;20.50;;;;;;;3.08;100.00;102434.03;4955734;28;20023;-68
2021/12/23 08:41:44;;;;;;;39.10;21.45;;;;;;;3.37;100.00;102429.97;4955166;29;20086;-67
2021/12/23 08:44:30;;;;;;;42.63;21.90;;;;;;;2.37;100.00;102426.72;4956157;29;20421;-68
2021/12/23 08:47:16;;;;;;;37.72;21.75;;;;;;;1.97;100.00;102437.03;4956243;28;20027;-68
2021/12/23 08:50:06;;;;;;;37.60;21.50;;;;;;;2.03;100.00;102433.81;4955429;29;20155;-69
2021/12/23 08:52:52;;;;;;;36.05;21.50;;;;;;;2.84;100.00;102432.16;4955710;29;20063;-69
2021/12/23 08:55:38;;;;;;;44.38;23.83;;;;;;;2.39;100.00;102425.97;4955136;28;20127;-69
2021/12/23 08:58:24;;;;;;;37.58;21.23;;;;;;;2.52;100.00;102423.06;4955170;29;20037;-68
2021/12/23 09:01:11;;;;;;;38.67;21.05;;;;;;;2.67;100.00;102420.25;4956423;29;20031;-68
2021/12/23 09:03:56;;;;;;;43.65;21.50;;;;;;;3.26;100.00;102414.03;4956248;29;20027;-68
2021/12/23 09:06:42;;;;;;;43.92;22.00;;;;;;;3.58;100.00;102416.13;4955207;28;20031;-68
2021/12/23 09:09:31;;;;;;;39.95;21.58;;;;;;;2.28;100.00;102411.69;4956147;29;20499;-68
2021/12/23 09:12:19;;;;;;;34.88;19.88;;;;;;;3.34;100.00;102410.03;4943065;28;20129;-68
2021/12/23 09:15:05;;;;;;;34.88;21.00;;;;;;;3.34;100.00;102407.44;4956235;29;20372;-69
2021/12/23 09:17:51;;;;;;;37.60;23.23;;;;;;;3.78;100.00;102403.94;4955401;29;20383;-68
2021/12/23 09:20:37;;;;;;;37.35;21.25;;;;;;;3.23;100.00;102397.50;4943147;28;20114;-69
2021/12/23 09:23:24;;;;;;;36.63;21.95;;;;;;;3.17;100.00;102394.69;4955396;29;20090;-68
2021/12/23 09:26:10;;;;;;;37.55;21.05;;;;;;;4.12;100.00;102392.25;4956244;28;20032;-69
2021/12/23 09:34:46;;;;;;;34.00;20.33;;;;;;;2.98;100.00;102387.88;4954634;29;20436;-69
2021/12/23 09:37:32;;;;;;;40.10;20.13;;;;;;;2.66;100.00;102385.69;4955118;29;20453;-68
2021/12/23 09:40:19;;;;;;;29.83;18.05;;;;;;;2.67;100.00;102376.25;4955317;29;20035;-69
2021/12/23 09:43:08;;;;;;;32.95;17.90;;;;;;;3.23;100.00;102377.69;4955978;29;20031;-69
2021/12/23 09:45:55;;;;;;;35.75;17.00;;;;;;;3.48;100.00;102371.69;4942288;29;20031;-68
2021/12/23 09:48:43;;;;;;;31.98;17.17;;;;;;;3.47;100.00;102365.66;4956832;28;20031;-68
2021/12/23 09:51:30;;;;;;;27.00;16.40;;;;;;;3.78;100.00;102355.56;4942959;29;20035;-69
2021/12/23 09:54:18;;;;;;;29.50;16.92;;;;;;;3.78;100.00;102358.16;4945885;29;20083;-68
2021/12/23 09:57:04;;;;;;;28.88;16.90;;;;;;;3.76;100.00;102344.25;4959007;28;20067;-69
2021/12/23 09:59:50;;;;;;;30.35;17.52;;;;;;;3.79;100.00;102354.75;4957941;29;20046;-69
2021/12/23 10:02:40;;;;;;;36.13;21.88;;;;;;;3.80;100.00;102343.53;4958899;29;20034;-68
2021/12/23 10:05:31;;;;;;;30.23;18.17;;;;;;;3.44;100.00;102337.03;4945512;28;20444;-68
2021/12/23 10:08:17;;;;;;;28.77;17.85;;;;;;;3.10;100.00;102333.13;4957848;29;20027;-70
2021/12/23 10:11:21;;;;;;;31.00;17.58;;;;;;;2.99;100.00;102324.94;4944961;29;20405;-70
2021/12/23 10:38:43;;;;;;;27.25;16.63;;;;;;;3.55;100.00;102285.59;4957935;29;20027;-70
2021/12/23 10:41:29;;;;;;;31.38;17.88;;;;;;;3.56;100.00;102282.16;4958478;29;20415;-70
2021/12/23 10:44:28;;;;;;;27.48;17.85;;;;;;;3.48;100.00;102278.41;4944286;29;20031;-70
2021/12/23 10:47:39;;;;;;;28.60;18.00;;;;;;;3.57;100.00;102281.34;4957765;28;20536;-71
2021/12/23 10:50:57;;;;;;;28.65;17.08;;;;;;;3.66;100.00;102274.78;4957633;29;20460;-70
2021/12/23 10:59:35;;;;;;;33.33;18.20;;;;;;;3.84;100.00;102267.66;4957689;29;20038;-70
2021/12/23 11:02:32;;;;;;;30.20;17.83;;;;;;;4.12;100.00;102261.66;4957690;28;20065;-70
2021/12/23 11:05:25;;;;;;;30.55;18.73;;;;;;;3.91;100.00;102256.63;4957440;28;20426;-69
2021/12/23 11:11:36;;;;;;;32.08;18.98;;;;;;;4.75;98.07;102251.59;4956881;29;20055;-69
2021/12/23 11:42:14;;;;;;;37.08;20.80;;;;;;;5.09;94.87;102205.03;4956307;29;20089;-70
2021/12/23 11:45:00;;;;;;;39.35;22.33;;;;;;;5.26;90.54;102202.88;4956784;29;20452;-71
2021/12/23 11:47:46;;;;;;;38.65;21.17;;;;;;;4.55;92.53;102198.19;4958346;28;20035;-70
2021/12/23 11:50:41;;;;;;;40.47;22.83;;;;;;;4.55;94.33;102213.75;4957253;29;20027;-70
2021/12/23 11:53:27;;;;;;;38.38;23.92;;;;;;;4.70;93.54;102219.44;4943748;28;20023;-70
2021/12/23 11:56:15;;;;;;;33.25;19.95;;;;;;;4.26;96.51;102214.59;4956881;28;20055;-70
2021/12/23 11:59:03;;;;;;;36.80;21.70;;;;;;;4.04;100.00;102211.25;4957702;28;20031;-70
2021/12/23 12:01:54;;;;;;;34.67;21.27;;;;;;;4.34;100.00;102207.06;4956041;29;20041;-69
2021/12/23 12:04:40;;;;;;;36.55;22.50;;;;;;;3.89;100.00;102208.16;4955599;29;20460;-69
2021/12/23 12:07:26;;;;;;;36.80;22.85;;;;;;;3.56;100.00;102201.84;4957175;28;20515;-69
2021/12/23 12:10:19;;;;;;;36.08;21.92;;;;;;;3.69;100.00;102204.00;4956851;29;20159;-72
2021/12/23 12:13:08;;;;;;;36.28;21.73;;;;;;;4.22;100.00;102201.50;4943692;28;20031;-69
2021/12/23 12:15:57;;;;;;;33.00;20.40;;;;;;;4.97;97.13;102188.19;4955367;28;20472;-70
2021/12/23 12:18:46;;;;;;;35.67;20.15;;;;;;;4.53;99.22;102192.09;4958080;28;20043;-70
2021/12/23 12:21:34;;;;;;;37.33;21.88;;;;;;;4.07;100.00;102188.88;4956191;29;20038;-71
2021/12/23 12:24:20;;;;;;;34.78;20.90;;;;;;;4.56;99.64;102181.81;4956823;29;20174;-72
2021/12/23 12:27:09;;;;;;;32.50;20.75;;;;;;;4.49;100.00;102176.38;4956305;28;20023;-71
2021/12/23 12:30:11;;;;;;;35.95;20.60;;;;;;;4.11;100.00;102174.31;4955929;29;20028;-71
2021/12/23 12:33:02;;;;;;;44.95;24.10;;;;;;;4.46;100.00;102161.59;4941484;29;20027;-70
2021/12/23 12:36:05;;;;;;;38.22;20.70;;;;;;;4.65;98.90;102158.72;4955243;28;20047;-71
2021/12/23 12:39:03;;;;;;;32.58;20.08;;;;;;;4.32;98.88;102162.91;4955746;29;20027;-73
2021/12/23 12:41:49;;;;;;;31.15;19.75;;;;;;;4.35;99.97;102155.19;4941393;29;20027;-70
2021/12/23 12:44:51;;;;;;;31.98;19.45;;;;;;;4.46;99.62;102145.16;4954875;29;20043;-71
2021/12/23 12:59:46;;;;;;;32.78;20.63;;;;;;;3.49;100.00;102135.97;5049548;23;20472;-70
2021/12/23 13:02:33;;;;;;;35.05;20.25;;;;;;;3.16;100.00;102137.44;4994401;28;20044;-71
2021/12/23 13:05:32;;;;;;;36.58;21.33;;;;;;;4.11;100.00;102132.84;4993798;28;20026;-71
2021/12/23 13:08:21;;;;;;;33.63;21.90;;;;;;;4.02;100.00;102129.97;4968367;28;20519;-71
2021/12/23 13:11:06;;;;;;;32.20;19.88;;;;;;;3.89;100.00;102133.88;4994717;28;20062;-71
2021/12/23 13:14:00;;;;;;;33.55;20.15;;;;;;;4.04;99.35;102138.66;4994661;28;20022;-71
2021/12/23 13:16:57;;;;;;;38.47;22.42;;;;;;;4.02;100.00;102136.00;4980256;28;20045;-71
2021/12/23 13:19:43;;;;;;;36.42;20.88;;;;;;;3.76;100.00;102136.91;4995036;28;20041;-71
2021/12/23 13:22:29;;;;;;;37.13;21.83;;;;;;;3.44;100.00;102134.97;4994524;28;20122;-70
2021/12/23 13:25:15;;;;;;;37.35;21.38;;;;;;;4.01;100.00;102131.66;4995365;28;20026;-71
2021/12/23 13:28:06;;;;;;;34.28;20.40;;;;;;;3.63;100.00;102131.25;4998754;28;20037;-70
2021/12/23 13:30:52;;;;;;;36.13;20.20;;;;;;;3.48;100.00;102126.47;4999297;28;20391;-71
2021/12/23 13:33:50;;;;;;;36.80;21.35;;;;;;;3.53;100.00;102127.50;4984660;28;20121;-71
2021/12/23 13:36:46;;;;;;;35.70;21.83;;;;;;;3.66;100.00;102128.78;4998663;28;20463;-72
2021/12/23 13:39:37;;;;;;;36.78;21.15;;;;;;;3.58;100.00;102130.25;4998607;28;20356;-71
2021/12/23 13:42:23;;;;;;;35.35;20.50;;;;;;;3.78;100.00;102134.38;4984082;28;20037;-71
2021/12/23 13:45:09;;;;;;;37.00;20.27;;;;;;;4.04;100.00;102129.16;4996980;28;20031;-71
2021/12/23 13:47:59;;;;;;;35.70;20.60;;;;;;;3.79;100.00;102128.34;4998250;28;20034;-71
2021/12/23 13:50:45;;;;;;;34.65;19.60;;;;;;;3.87;100.00;102130.31;4997876;28;20439;-70
2021/12/23 13:53:31;;;;;;;33.10;20.42;;;;;;;3.89;100.00;102125.19;4998194;28;20045;-70
2021/12/23 13:56:17;;;;;;;38.05;21.50;;;;;;;3.75;100.00;102127.38;4999058;28;20030;-70
2021/12/23 13:59:21;;;;;;;34.05;20.10;;;;;;;3.91;100.00;102128.72;4982431;28;20065;-71
2021/12/23 14:02:12;;;;;;;34.55;20.55;;;;;;;3.82;100.00;102125.84;4997612;28;20028;-71
2021/12/23 14:05:03;;;;;;;36.17;20.38;;;;;;;3.36;100.00;102123.47;4983009;28;20034;-70
2021/12/23 14:07:52;;;;;;;43.40;23.85;;;;;;;3.15;100.00;102127.91;4997968;28;20030;-71
2021/12/23 14:10:40;;;;;;;34.65;20.98;;;;;;;3.14;100.00;102122.69;4996673;28;20037;-72
2021/12/23 14:13:26;;;;;;;33.72;19.80;;;;;;;3.12;100.00;102112.25;4996965;28;20036;-71